Rushden, United Kingdom
Current Conditions -  °F | °C
As of 12:20 PM on Monday 22 Dec 2014 (Local Time) from EGTC Reporting Station
Broken Clouds Broken Clouds  
Wind Chill: 54°   Ceiling: 1500
Heat Index: 54°   Visibility: 6mi
Dew Point: 48°   Wind: 23mph
Humidity: 82%   Direction: 240°WSW
Pressure: 29.94"   Gusts: 35mph
Location:  52.29°N, 0.6°W
Report Text: EGTC 221220Z 24020G30KT 9999 BKN015 12/09 Q1014
Loading
Personal Weather Stations






























Interactive Weather Map New forecast layout! Learn more

10-Day Weather Forecast

Advertisements
Track Severe Weather on mobile